Time;durP1;ratioP1;P1;durP2;ratioP2;P2;SDS_P1;SDS_P2;PMS_P1;PMS_P2;Temp;Humidity;BMP_temperature;BMP_pressure;BME280_temperature;BME280_humidity;BME280_pressure;Samples;Min_cycle;Max_cycle;Signal;HPM_P1;HPM_P2
2021/11/05 00:01:58;;;;;;;6.93;2.63;;;11.60;99.90;;;;;;5011830;28;20045;-71
2021/11/05 00:04:24;;;;;;;6.95;2.50;;;11.60;99.90;;;;;;4994456;28;20042;-71
2021/11/05 00:06:50;;;;;;;10.75;3.17;;;11.60;99.90;;;;;;5011710;28;20026;-71
2021/11/05 00:09:15;;;;;;;9.27;2.85;;;11.60;99.90;;;;;;5010580;28;20038;-72
2021/11/05 00:11:41;;;;;;;10.85;2.92;;;11.60;99.90;;;;;;5011621;28;20386;-72
2021/11/05 00:14:07;;;;;;;10.68;3.83;;;11.70;99.90;;;;;;5011295;28;20026;-71
2021/11/05 00:16:32;;;;;;;8.25;2.88;;;11.70;99.90;;;;;;5014069;28;20029;-71
2021/11/05 00:18:58;;;;;;;12.43;3.60;;;11.70;99.90;;;;;;5012055;28;20065;-71
2021/11/05 00:21:24;;;;;;;14.50;2.92;;;11.70;99.90;;;;;;5011361;28;20034;-71
2021/11/05 00:23:50;;;;;;;10.82;3.15;;;11.70;99.90;;;;;;5014512;28;20059;-71
2021/11/05 00:26:16;;;;;;;5.05;2.47;;;11.70;99.90;;;;;;5014944;28;20084;-71
2021/11/05 00:28:42;;;;;;;10.63;3.22;;;11.70;99.90;;;;;;5015286;28;20030;-71
2021/11/05 00:31:07;;;;;;;8.95;3.00;;;11.70;99.90;;;;;;5014747;28;20038;-71
2021/11/05 00:33:33;;;;;;;12.77;5.03;;;11.70;99.90;;;;;;5014842;28;20109;-71
2021/11/05 00:35:59;;;;;;;21.98;4.65;;;11.70;99.90;;;;;;5014718;28;20394;-71
2021/11/05 00:38:25;;;;;;;6.60;2.72;;;11.70;99.90;;;;;;5015258;28;20038;-71
2021/11/05 00:40:50;;;;;;;9.45;3.63;;;11.70;99.90;;;;;;5013986;28;20033;-71
2021/11/05 00:43:16;;;;;;;9.18;2.83;;;11.70;99.90;;;;;;5015125;28;20038;-71
2021/11/05 00:45:42;;;;;;;18.63;2.90;;;11.70;99.90;;;;;;5014760;28;20038;-71
2021/11/05 00:48:08;;;;;;;10.30;2.63;;;11.70;99.90;;;;;;5014888;28;20109;-71
2021/11/05 00:50:34;;;;;;;11.60;3.05;;;11.70;99.90;;;;;;5014531;28;20069;-72
2021/11/05 00:52:59;;;;;;;15.32;2.75;;;11.70;99.90;;;;;;5012967;28;20034;-71
2021/11/05 00:55:25;;;;;;;8.65;3.28;;;11.70;99.90;;;;;;5014538;28;20026;-69
2021/11/05 00:57:51;;;;;;;13.43;4.00;;;11.70;99.90;;;;;;5014722;28;20077;-71
2021/11/05 01:00:19;;;;;;;10.00;2.72;;;11.70;99.90;;;;;;4997472;28;20037;-71
2021/11/05 01:02:45;;;;;;;9.55;4.25;;;11.60;99.90;;;;;;5015742;28;20026;-73
2021/11/05 01:05:12;;;;;;;16.50;3.00;;;11.60;99.90;;;;;;5015066;28;20117;-71
2021/11/05 01:07:38;;;;;;;11.25;2.65;;;11.60;99.90;;;;;;5014969;28;20030;-71
2021/11/05 01:10:05;;;;;;;8.27;2.45;;;11.50;99.90;;;;;;4995328;28;20038;-71
2021/11/05 01:12:31;;;;;;;15.93;2.63;;;11.50;99.90;;;;;;5013887;28;20113;-71
2021/11/05 01:14:57;;;;;;;9.93;2.92;;;11.50;99.90;;;;;;5014248;28;20068;-71
2021/11/05 01:17:23;;;;;;;12.20;3.47;;;11.50;99.90;;;;;;5014294;28;20112;-71
2021/11/05 01:19:49;;;;;;;8.63;3.70;;;11.60;99.90;;;;;;5014317;28;20037;-71
2021/11/05 01:22:15;;;;;;;7.85;2.28;;;11.60;99.90;;;;;;5014006;28;20048;-70
2021/11/05 01:24:41;;;;;;;14.23;2.67;;;11.60;99.90;;;;;;5013852;28;20021;-71
2021/11/05 01:27:07;;;;;;;7.80;2.38;;;11.60;99.90;;;;;;5014042;28;20046;-72
2021/11/05 01:29:33;;;;;;;10.85;3.17;;;11.50;99.90;;;;;;5013904;28;20026;-70
2021/11/05 01:31:59;;;;;;;14.40;3.42;;;11.50;99.90;;;;;;5014222;28;20045;-71
2021/11/05 01:34:25;;;;;;;10.38;3.15;;;11.50;99.90;;;;;;5013515;28;20117;-70
2021/11/05 01:36:51;;;;;;;11.57;2.58;;;11.50;99.90;;;;;;5013792;28;20038;-70
2021/11/05 01:39:17;;;;;;;10.15;2.78;;;11.50;99.90;;;;;;5013712;28;20030;-71
2021/11/05 01:41:43;;;;;;;13.05;2.85;;;11.60;99.90;;;;;;5013709;28;20042;-71
2021/11/05 01:44:09;;;;;;;10.50;2.45;;;11.60;99.90;;;;;;5013271;28;20449;-71
2021/11/05 01:46:41;;;;;;;15.02;3.03;;;11.60;99.90;;;;;;5013688;28;20113;-71
2021/11/05 01:49:10;;;;;;;;;;;11.60;99.90;;;;;;5013909;28;20026;-71
2021/11/05 01:51:37;;;;;;;11.20;2.40;;;11.50;99.90;;;;;;5013623;28;19968;-71
2021/11/05 01:54:12;;;;;;;10.55;2.63;;;11.50;99.90;;;;;;5014050;28;20430;-71
2021/11/05 01:56:41;;;;;;;18.75;3.05;;;11.50;99.90;;;;;;5011974;28;20030;-71
2021/11/05 01:59:07;;;;;;;7.38;3.05;;;11.40;99.90;;;;;;5013708;28;20388;-72
2021/11/05 02:01:34;;;;;;;14.50;2.38;;;11.40;99.90;;;;;;5013218;28;20034;-71
2021/11/05 02:04:00;;;;;;;6.45;2.58;;;11.40;99.90;;;;;;5013053;28;20045;-71
2021/11/05 02:06:27;;;;;;;13.73;2.95;;;11.40;99.90;;;;;;5013130;28;20049;-71
2021/11/05 02:08:54;;;;;;;9.88;2.95;;;11.40;99.90;;;;;;5013462;28;20060;-71
2021/11/05 02:11:20;;;;;;;10.75;2.40;;;11.50;99.90;;;;;;5013228;28;20046;-71
2021/11/05 02:13:47;;;;;;;12.10;2.90;;;11.50;99.90;;;;;;5012594;28;20029;-70
2021/11/05 02:16:14;;;;;;;10.70;2.55;;;11.50;99.90;;;;;;5012736;28;20091;-71
2021/11/05 02:18:43;;;;;;;7.57;3.30;;;11.50;99.90;;;;;;5012957;28;20086;-71
2021/11/05 02:21:18;;;;;;;9.50;3.42;;;11.50;99.90;;;;;;4995578;28;20394;-71
2021/11/05 02:23:44;;;;;;;9.75;2.92;;;11.50;99.90;;;;;;5012956;28;20383;-71
2021/11/05 02:26:10;;;;;;;6.28;2.10;;;11.50;99.90;;;;;;5012971;28;20046;-71
2021/11/05 02:28:39;;;;;;;9.35;2.40;;;11.50;99.90;;;;;;5012480;28;20045;-71
2021/11/05 02:31:07;;;;;;;10.77;3.03;;;11.40;99.90;;;;;;5012880;28;20034;-71
2021/11/05 02:33:32;;;;;;;10.38;1.88;;;11.40;99.90;;;;;;5012637;28;20099;-71
2021/11/05 02:35:59;;;;;;;14.02;3.10;;;11.30;99.90;;;;;;5012875;28;20470;-71
2021/11/05 02:38:25;;;;;;;13.90;2.53;;;11.30;99.90;;;;;;5012769;28;20037;-71
2021/11/05 02:40:52;;;;;;;11.98;3.47;;;11.30;99.90;;;;;;5011463;28;20478;-71
2021/11/05 02:43:18;;;;;;;11.93;2.15;;;11.20;99.90;;;;;;5012652;28;20041;-71
2021/11/05 02:45:49;;;;;;;8.60;2.03;;;11.20;99.90;;;;;;5012152;28;20026;-70
2021/11/05 02:48:16;;;;;;;11.38;1.98;;;11.20;99.90;;;;;;5012578;28;20033;-71
2021/11/05 02:50:43;;;;;;;8.40;2.45;;;11.10;99.90;;;;;;5012584;28;20034;-71
2021/11/05 02:53:09;;;;;;;7.07;2.55;;;11.10;99.90;;;;;;5012382;28;20045;-71
2021/11/05 02:55:35;;;;;;;8.98;2.63;;;11.10;99.90;;;;;;5012218;28;20038;-69
2021/11/05 02:58:01;;;;;;;11.80;3.00;;;11.10;99.90;;;;;;5012456;28;20362;-71
2021/11/05 03:00:27;;;;;;;11.23;2.25;;;11.00;99.90;;;;;;5011651;28;20042;-71
2021/11/05 03:02:53;;;;;;;8.15;2.97;;;10.90;99.90;;;;;;5012377;28;20064;-71
2021/11/05 03:05:19;;;;;;;6.32;2.17;;;10.90;99.90;;;;;;5013026;28;20348;-71
2021/11/05 03:07:45;;;;;;;8.95;2.03;;;10.90;99.90;;;;;;5012602;28;20057;-71
2021/11/05 03:10:14;;;;;;;8.25;2.30;;;10.90;99.90;;;;;;5012499;28;20105;-71
2021/11/05 03:12:41;;;;;;;9.23;2.22;;;10.90;99.90;;;;;;5010703;28;20061;-71
2021/11/05 03:15:07;;;;;;;9.32;2.47;;;10.90;99.90;;;;;;5011618;28;20034;-72
2021/11/05 03:17:34;;;;;;;11.00;3.05;;;10.90;99.90;;;;;;5012376;28;20116;-71
2021/11/05 03:20:00;;;;;;;14.13;2.63;;;10.90;99.90;;;;;;5012763;28;20092;-71
2021/11/05 03:22:27;;;;;;;9.35;2.42;;;10.90;99.90;;;;;;5011944;28;20093;-71
2021/11/05 03:24:53;;;;;;;11.32;2.85;;;10.90;99.90;;;;;;5012196;28;20037;-72
2021/11/05 03:27:19;;;;;;;8.57;2.28;;;10.90;99.90;;;;;;5012546;28;20034;-71
2021/11/05 03:29:45;;;;;;;7.32;2.30;;;10.90;99.90;;;;;;5012358;28;20026;-72
2021/11/05 03:32:11;;;;;;;8.20;2.15;;;10.90;99.90;;;;;;5012773;28;20557;-72
2021/11/05 03:34:37;;;;;;;9.57;2.08;;;10.90;99.90;;;;;;5012262;28;20030;-71
2021/11/05 03:37:03;;;;;;;11.32;2.08;;;11.00;99.90;;;;;;5012274;28;20379;-71
2021/11/05 03:39:29;;;;;;;12.63;2.40;;;11.00;99.90;;;;;;5012388;28;20124;-71
2021/11/05 03:41:55;;;;;;;11.48;2.55;;;11.00;99.90;;;;;;5011728;28;20034;-71
2021/11/05 03:44:21;;;;;;;14.25;2.28;;;11.00;99.90;;;;;;5012217;28;20479;-71
2021/11/05 03:46:47;;;;;;;11.52;2.30;;;11.00;99.90;;;;;;5011740;28;20124;-71
2021/11/05 03:49:13;;;;;;;13.50;2.58;;;11.00;99.90;;;;;;5012264;28;20054;-71
2021/11/05 03:51:39;;;;;;;10.10;3.08;;;11.00;99.90;;;;;;5011600;28;20038;-71
2021/11/05 03:54:06;;;;;;;8.68;2.15;;;11.00;99.90;;;;;;5011560;28;20048;-71
2021/11/05 03:56:33;;;;;;;10.80;2.42;;;11.00;99.90;;;;;;5011977;28;20483;-71
2021/11/05 03:58:59;;;;;;;12.80;2.10;;;11.00;99.90;;;;;;5014820;28;20112;-71
2021/11/05 04:01:25;;;;;;;13.18;2.15;;;11.10;99.90;;;;;;5015444;28;20072;-71
2021/11/05 04:03:52;;;;;;;10.55;2.83;;;11.10;99.90;;;;;;5015228;28;20061;-71
2021/11/05 04:06:19;;;;;;;7.30;2.03;;;11.10;99.90;;;;;;5015493;28;20387;-71
2021/11/05 04:08:46;;;;;;;18.45;2.70;;;11.10;99.90;;;;;;5015920;28;20426;-71
2021/11/05 04:11:12;;;;;;;5.55;1.85;;;11.10;99.90;;;;;;5015343;28;20541;-71
2021/11/05 04:13:39;;;;;;;12.00;2.00;;;11.20;99.90;;;;;;5015444;28;20394;-71
2021/11/05 04:16:05;;;;;;;13.65;2.78;;;11.20;99.90;;;;;;5014937;28;20038;-71
2021/11/05 04:18:31;;;;;;;7.97;1.85;;;11.20;99.90;;;;;;5015356;28;20056;-71
2021/11/05 04:20:56;;;;;;;10.13;2.85;;;11.20;99.90;;;;;;5014708;28;20029;-71
2021/11/05 04:23:22;;;;;;;10.55;2.20;;;11.30;99.90;;;;;;5015679;28;20030;-71
2021/11/05 04:25:48;;;;;;;9.45;2.22;;;11.30;99.90;;;;;;5015127;28;20034;-70
2021/11/05 04:28:14;;;;;;;5.47;2.10;;;11.30;99.90;;;;;;5014813;28;20387;-71
2021/11/05 04:30:40;;;;;;;9.40;1.73;;;11.30;99.90;;;;;;5014811;28;20034;-71
2021/11/05 04:33:07;;;;;;;8.82;1.95;;;11.40;99.90;;;;;;5014986;28;20045;-71
2021/11/05 04:35:34;;;;;;;8.10;1.88;;;11.50;99.90;;;;;;5014974;28;20382;-71
2021/11/05 04:37:59;;;;;;;15.50;2.00;;;11.50;99.90;;;;;;5014828;28;20064;-71
2021/11/05 04:40:25;;;;;;;7.95;2.55;;;11.40;99.90;;;;;;5014733;28;20471;-71
2021/11/05 04:42:51;;;;;;;6.82;1.92;;;11.40;99.90;;;;;;5014846;28;20113;-71
2021/11/05 04:45:17;;;;;;;12.50;2.20;;;11.40;99.90;;;;;;5014604;28;20037;-71
2021/11/05 04:47:42;;;;;;;11.90;2.63;;;11.40;99.90;;;;;;5014913;28;20029;-71
2021/11/05 04:50:09;;;;;;;9.95;2.45;;;11.40;99.90;;;;;;5014869;28;20080;-71
2021/11/05 04:52:36;;;;;;;13.63;2.20;;;11.50;99.90;;;;;;5014274;28;20026;-70
2021/11/05 04:55:04;;;;;;;9.68;2.03;;;11.40;99.90;;;;;;5014479;28;20030;-70
2021/11/05 04:57:30;;;;;;;6.15;1.90;;;11.40;99.90;;;;;;5014374;28;20030;-71
2021/11/05 04:59:56;;;;;;;12.52;2.60;;;11.40;99.90;;;;;;5014819;28;20030;-71
2021/11/05 05:02:22;;;;;;;9.73;2.33;;;11.40;99.90;;;;;;4997186;28;20026;-71
2021/11/05 05:04:47;;;;;;;9.80;2.45;;;11.40;99.90;;;;;;5014631;28;20105;-70
2021/11/05 05:07:14;;;;;;;8.68;2.88;;;11.40;99.90;;;;;;5014410;28;20494;-71
2021/11/05 05:09:40;;;;;;;10.85;2.17;;;11.40;99.90;;;;;;5014030;28;20030;-71
2021/11/05 05:12:06;;;;;;;12.18;2.63;;;11.40;99.90;;;;;;5013982;28;20446;-71
2021/11/05 05:14:32;;;;;;;11.15;2.75;;;11.40;99.90;;;;;;5014066;28;20102;-71
2021/11/05 05:16:58;;;;;;;9.13;2.28;;;11.40;99.90;;;;;;5013332;28;20058;-72
2021/11/05 05:19:24;;;;;;;8.57;2.28;;;11.40;99.90;;;;;;5014224;28;20097;-73
2021/11/05 05:21:50;;;;;;;9.57;2.05;;;11.40;99.90;;;;;;5014081;28;20058;-71
2021/11/05 05:24:16;;;;;;;8.93;2.30;;;11.40;99.90;;;;;;5013455;28;20101;-71
2021/11/05 05:26:42;;;;;;;9.70;2.38;;;11.40;99.90;;;;;;5013975;28;20064;-71
2021/11/05 05:29:08;;;;;;;5.30;2.10;;;11.50;99.90;;;;;;5014335;28;20096;-71
2021/11/05 05:31:34;;;;;;;8.23;2.40;;;11.50;99.90;;;;;;5013767;28;20073;-72
2021/11/05 05:34:00;;;;;;;9.48;2.33;;;11.40;99.90;;;;;;5013445;28;20164;-71
2021/11/05 05:36:25;;;;;;;5.75;1.95;;;11.50;99.90;;;;;;5013738;28;20041;-71
2021/11/05 05:38:51;;;;;;;12.88;2.30;;;11.50;99.90;;;;;;5014240;28;20034;-71
2021/11/05 05:41:18;;;;;;;7.75;2.00;;;11.40;99.90;;;;;;5013339;28;20041;-71
2021/11/05 05:43:44;;;;;;;4.35;1.95;;;11.40;99.90;;;;;;5014047;28;20057;-71
2021/11/05 05:46:10;;;;;;;12.60;2.13;;;11.50;99.90;;;;;;5013789;28;20084;-71
2021/11/05 05:48:36;;;;;;;6.95;2.38;;;11.50;99.90;;;;;;5013822;28;20097;-70
2021/11/05 05:51:03;;;;;;;10.63;2.30;;;11.50;99.90;;;;;;5013898;28;20129;-70
2021/11/05 05:53:29;;;;;;;11.52;2.78;;;11.50;99.90;;;;;;4995606;28;20049;-70
2021/11/05 05:55:55;;;;;;;7.28;2.05;;;11.40;99.90;;;;;;5013496;28;20037;-70
2021/11/05 05:58:21;;;;;;;8.60;2.38;;;11.50;99.90;;;;;;5014574;28;20034;-71
2021/11/05 06:00:47;;;;;;;11.45;2.97;;;11.50;99.90;;;;;;5019151;28;20035;-72
2021/11/05 06:03:14;;;;;;;9.85;2.13;;;11.50;99.90;;;;;;5012969;28;20045;-70
2021/11/05 06:05:40;;;;;;;12.45;2.92;;;11.50;99.90;;;;;;5012438;28;20057;-69
2021/11/05 06:08:06;;;;;;;10.48;2.78;;;11.50;99.90;;;;;;5010982;28;20057;-69
2021/11/05 06:10:32;;;;;;;10.60;2.30;;;11.60;99.90;;;;;;5011594;28;20042;-70
2021/11/05 06:12:58;;;;;;;12.77;2.30;;;11.60;99.90;;;;;;5011981;28;20081;-70
2021/11/05 06:15:24;;;;;;;9.65;2.58;;;11.70;99.90;;;;;;5012668;28;20100;-70
2021/11/05 06:17:50;;;;;;;6.80;2.63;;;11.70;99.90;;;;;;5013282;28;20109;-70
2021/11/05 06:20:16;;;;;;;8.77;2.67;;;11.80;99.90;;;;;;5012365;28;20030;-71
2021/11/05 06:22:41;;;;;;;11.18;2.40;;;12.00;99.90;;;;;;5012404;28;20482;-70
2021/11/05 06:25:08;;;;;;;7.40;2.00;;;12.20;99.90;;;;;;5013217;28;20376;-70
2021/11/05 06:27:33;;;;;;;15.82;2.92;;;12.60;99.90;;;;;;5012833;28;20034;-70
2021/11/05 06:29:59;;;;;;;7.63;2.20;;;13.00;99.90;;;;;;5012753;28;20049;-71
2021/11/05 06:32:25;;;;;;;7.22;2.28;;;13.70;99.90;;;;;;5011995;28;20046;-70
2021/11/05 06:34:51;;;;;;;10.68;2.83;;;14.30;99.90;;;;;;4995728;28;20041;-71
2021/11/05 06:37:17;;;;;;;10.68;2.20;;;14.90;99.90;;;;;;5012900;28;20044;-70
2021/11/05 06:39:43;;;;;;;10.65;2.33;;;15.60;99.90;;;;;;5012385;28;20033;-71
2021/11/05 06:42:10;;;;;;;7.55;2.20;;;16.20;99.90;;;;;;5012135;28;20045;-72
2021/11/05 06:44:36;;;;;;;10.65;2.13;;;16.70;99.90;;;;;;5001045;28;20025;-72
2021/11/05 06:47:02;;;;;;;9.32;2.78;;;17.20;99.90;;;;;;5012715;28;20032;-71
2021/11/05 06:49:27;;;;;;;13.32;2.67;;;17.50;99.90;;;;;;4995025;28;20532;-71
2021/11/05 06:51:54;;;;;;;7.28;1.88;;;17.80;99.90;;;;;;4995079;28;20046;-71
2021/11/05 06:54:23;;;;;;;4.80;2.20;;;18.10;99.90;;;;;;5012819;28;20026;-72
2021/11/05 06:56:50;;;;;;;7.45;1.98;;;18.40;99.90;;;;;;4999114;28;20060;-72
2021/11/05 06:59:16;;;;;;;13.23;3.05;;;18.70;99.90;;;;;;5012520;28;20038;-71
2021/11/05 07:01:42;;;;;;;5.28;1.45;;;18.80;99.90;;;;;;5012402;28;20032;-71
2021/11/05 07:04:08;;;;;;;5.30;1.88;;;18.70;99.90;;;;;;5012410;28;20383;-72
2021/11/05 07:06:33;;;;;;;7.22;2.22;;;18.50;99.90;;;;;;5012503;28;20044;-71
2021/11/05 07:08:59;;;;;;;5.88;1.83;;;18.50;99.90;;;;;;5012485;28;20025;-71
2021/11/05 07:11:25;;;;;;;9.60;1.98;;;18.60;99.90;;;;;;5012090;28;20112;-71
2021/11/05 07:13:51;;;;;;;6.93;1.48;;;18.80;99.90;;;;;;5011850;28;20161;-72
2021/11/05 07:16:16;;;;;;;6.05;2.13;;;19.10;99.90;;;;;;5010649;28;20394;-72
2021/11/05 07:18:42;;;;;;;4.55;2.03;;;19.30;99.90;;;;;;5010018;28;20030;-72
2021/11/05 07:21:08;;;;;;;11.70;2.85;;;19.20;99.90;;;;;;5010975;28;20030;-71
2021/11/05 07:23:34;;;;;;;9.30;2.47;;;19.30;99.90;;;;;;5012664;28;20426;-71
2021/11/05 07:26:04;;;;;;;8.13;2.20;;;19.40;99.90;;;;;;5012417;28;20046;-73
2021/11/05 07:28:30;;;;;;;6.20;2.35;;;19.20;99.90;;;;;;5011986;28;20038;-71
2021/11/05 07:30:56;;;;;;;7.03;1.90;;;18.90;99.90;;;;;;5011972;28;20046;-71
2021/11/05 07:33:22;;;;;;;12.80;2.30;;;19.20;99.90;;;;;;5016397;28;20026;-71
2021/11/05 07:35:48;;;;;;;10.85;1.92;;;19.20;99.90;;;;;;5016650;28;20479;-71
2021/11/05 07:38:13;;;;;;;5.57;1.83;;;19.20;99.90;;;;;;5016243;28;20026;-72
2021/11/05 07:40:39;;;;;;;5.22;1.83;;;19.50;99.90;;;;;;5016236;28;20049;-71
2021/11/05 07:43:05;;;;;;;8.18;1.92;;;19.60;99.90;;;;;;5015869;28;20398;-70
2021/11/05 07:45:31;;;;;;;13.02;2.53;;;19.60;99.90;;;;;;5016605;28;20034;-70
2021/11/05 07:47:57;;;;;;;8.10;2.25;;;19.60;99.90;;;;;;5016579;28;20034;-70
2021/11/05 07:50:26;;;;;;;8.23;1.92;;;19.60;99.90;;;;;;5016030;28;20034;-70
2021/11/05 07:52:51;;;;;;;7.03;1.88;;;19.80;99.90;;;;;;5016004;28;20084;-71
2021/11/05 07:55:17;;;;;;;7.22;2.05;;;19.90;99.90;;;;;;5016224;28;20034;-70
2021/11/05 07:57:43;;;;;;;6.90;2.05;;;20.00;99.90;;;;;;5016258;28;20414;-70
2021/11/05 08:00:12;;;;;;;6.88;2.05;;;20.30;99.90;;;;;;5016001;28;20038;-70
2021/11/05 08:02:39;;;;;;;16.33;2.63;;;20.50;99.90;;;;;;5016024;28;20022;-71
2021/11/05 08:05:05;;;;;;;16.50;2.70;;;20.80;99.90;;;;;;5015848;28;20049;-71
2021/11/05 08:07:31;;;;;;;13.07;1.83;;;21.10;99.90;;;;;;5015675;28;20454;-71
2021/11/05 08:09:57;;;;;;;15.38;2.17;;;21.40;99.90;;;;;;5015860;28;20040;-70
2021/11/05 08:12:22;;;;;;;8.85;2.38;;;21.80;99.90;;;;;;4997813;28;20492;-71
2021/11/05 08:14:48;;;;;;;16.23;1.90;;;22.20;99.90;;;;;;5015394;28;20036;-71
2021/11/05 08:17:14;;;;;;;5.88;2.42;;;22.80;99.90;;;;;;5015704;28;20061;-71
2021/11/05 08:19:39;;;;;;;7.90;1.73;;;23.30;99.90;;;;;;5014965;28;20566;-68
2021/11/05 08:22:06;;;;;;;12.07;3.22;;;23.60;99.90;;;;;;5014958;28;20069;-70
2021/11/05 08:24:31;;;;;;;13.27;6.28;;;23.70;99.90;;;;;;5017236;28;20026;-72
2021/11/05 08:26:57;;;;;;;31.98;10.27;;;24.30;99.90;;;;;;5014620;28;20482;-74
2021/11/05 08:29:23;;;;;;;17.70;4.68;;;24.70;99.90;;;;;;5015648;28;20041;-72
2021/11/05 08:31:49;;;;;;;10.80;3.22;;;25.30;99.90;;;;;;4997867;28;20398;-70
2021/11/05 08:34:15;;;;;;;9.30;2.33;;;25.70;98.90;;;;;;5015462;28;20105;-71
2021/11/05 08:36:41;;;;;;;7.65;1.90;;;25.70;98.20;;;;;;5015357;28;20132;-71
2021/11/05 08:39:09;;;;;;;9.18;1.92;;;25.70;97.80;;;;;;5015068;28;20034;-70
2021/11/05 08:41:35;;;;;;;15.82;2.58;;;26.00;97.00;;;;;;4997186;28;20042;-70
2021/11/05 08:44:01;;;;;;;14.63;2.42;;;26.20;96.90;;;;;;5014397;28;20029;-70
2021/11/05 08:46:29;;;;;;;12.75;2.20;;;26.90;95.60;;;;;;5015042;28;20544;-71
2021/11/05 08:49:01;;;;;;;12.27;2.30;;;27.70;94.20;;;;;;5014545;28;20490;-71
2021/11/05 08:51:29;;;;;;;12.50;2.78;;;27.90;93.40;;;;;;5014317;28;20045;-69
2021/11/05 08:53:55;;;;;;;11.55;1.90;;;27.90;92.10;;;;;;5014849;28;20029;-70
2021/11/05 08:56:21;;;;;;;11.30;2.03;;;28.00;92.20;;;;;;5015032;28;20034;-70
2021/11/05 08:58:47;;;;;;;16.15;1.88;;;28.30;91.20;;;;;;5014648;28;20028;-70
2021/11/05 09:01:14;;;;;;;7.25;1.60;;;28.10;90.90;;;;;;5014397;28;20034;-70
2021/11/05 09:03:40;;;;;;;7.45;2.72;;;28.10;90.60;;;;;;5014347;28;20026;-70
2021/11/05 09:06:06;;;;;;;9.57;1.88;;;27.90;90.80;;;;;;5014666;28;20197;-70
2021/11/05 09:08:33;;;;;;;8.85;2.10;;;28.10;90.20;;;;;;5014250;28;20433;-70
2021/11/05 09:11:00;;;;;;;19.13;4.53;;;28.60;88.90;;;;;;5014170;28;20133;-70
2021/11/05 09:13:26;;;;;;;10.07;2.58;;;28.60;89.10;;;;;;5014182;28;20380;-71
2021/11/05 09:15:52;;;;;;;29.17;2.42;;;28.90;87.30;;;;;;5013137;28;20026;-71
2021/11/05 09:18:18;;;;;;;5.82;1.85;;;27.90;89.20;;;;;;5013451;28;20030;-71
2021/11/05 09:20:44;;;;;;;13.63;3.85;;;26.40;90.40;;;;;;5012467;28;20127;-70
2021/11/05 09:23:10;;;;;;;12.20;3.40;;;25.40;91.30;;;;;;5012646;28;20065;-71
2021/11/05 09:25:35;;;;;;;27.80;6.13;;;23.90;92.80;;;;;;5013122;28;20026;-69
2021/11/05 09:28:01;;;;;;;34.95;8.90;;;23.10;93.90;;;;;;5013191;28;20037;-70
2021/11/05 09:30:27;;;;;;;87.75;19.15;;;22.40;95.10;;;;;;5013360;28;20033;-70
2021/11/05 09:32:53;;;;;;;68.55;14.98;;;21.80;95.80;;;;;;5013764;28;20124;-69
2021/11/05 09:35:20;;;;;;;49.25;10.77;;;21.30;96.00;;;;;;5013428;28;20490;-70
2021/11/05 09:37:49;;;;;;;70.13;14.98;;;20.60;97.10;;;;;;5002959;28;20049;-70
2021/11/05 09:40:17;;;;;;;60.78;13.40;;;20.00;98.30;;;;;;5013796;28;20038;-69
2021/11/05 09:42:46;;;;;;;45.08;10.68;;;19.90;98.20;;;;;;5013199;28;20085;-72
2021/11/05 09:45:13;;;;;;;68.40;23.52;;;19.90;98.40;;;;;;5014342;28;20026;-71
2021/11/05 09:47:40;;;;;;;33.22;13.35;;;20.20;98.70;;;;;;5013526;28;20029;-70
2021/11/05 09:50:06;;;;;;;27.15;8.70;;;20.10;98.20;;;;;;5014527;28;20037;-70
2021/11/05 09:52:32;;;;;;;19.52;8.55;;;19.50;99.00;;;;;;5013521;28;20046;-69
2021/11/05 09:55:00;;;;;;;16.02;6.75;;;19.00;99.80;;;;;;5013518;28;20141;-70
2021/11/05 09:57:25;;;;;;;22.00;9.07;;;19.00;99.90;;;;;;5013964;28;20064;-70
2021/11/05 09:59:51;;;;;;;33.53;11.23;;;19.20;99.90;;;;;;5015383;28;20057;-70
2021/11/05 10:02:17;;;;;;;30.30;7.15;;;19.30;99.90;;;;;;5020345;28;20034;-70
2021/11/05 10:04:44;;;;;;;12.32;3.20;;;19.30;99.90;;;;;;5017997;28;20038;-69
2021/11/05 10:07:11;;;;;;;10.15;2.58;;;19.10;99.90;;;;;;4995503;28;20053;-70
2021/11/05 10:09:56;;;;;;;6.15;2.30;;;18.70;99.90;;;;;;5014135;28;20391;-69
2021/11/05 10:12:25;;;;;;;10.43;2.80;;;18.40;99.90;;;;;;5010747;28;20431;-70
2021/11/05 10:15:02;;;;;;;11.95;3.22;;;18.40;99.90;;;;;;5013047;28;20420;-70
2021/11/05 10:17:31;;;;;;;7.57;3.25;;;18.40;99.90;;;;;;5012554;28;20034;-70
2021/11/05 10:19:59;;;;;;;7.45;2.97;;;18.50;99.90;;;;;;5013003;28;20049;-70
2021/11/05 10:22:40;;;;;;;7.45;2.58;;;18.70;99.90;;;;;;5012850;28;20033;-69
2021/11/05 10:25:32;;;;;;;6.20;2.67;;;18.70;99.90;;;;;;5010820;28;20414;-70
2021/11/05 10:28:06;;;;;;;10.00;3.05;;;19.10;99.90;;;;;;5012688;28;20058;-70
2021/11/05 10:30:36;;;;;;;10.38;2.50;;;19.60;99.90;;;;;;5010569;28;20058;-71
2021/11/05 10:33:03;;;;;;;13.18;2.40;;;20.50;99.90;;;;;;5012019;28;20037;-70
2021/11/05 10:35:29;;;;;;;4.72;2.25;;;21.30;98.90;;;;;;5011256;28;20484;-70
2021/11/05 10:38:01;;;;;;;5.00;2.20;;;21.70;97.70;;;;;;5012451;28;20473;-70
2021/11/05 10:40:43;;;;;;;13.73;2.28;;;22.10;97.10;;;;;;5012775;28;20022;-70
2021/11/05 10:43:10;;;;;;;5.32;2.42;;;21.50;97.20;;;;;;5011823;28;20483;-70
2021/11/05 10:45:40;;;;;;;6.90;3.03;;;21.70;97.20;;;;;;5011687;28;20386;-69
2021/11/05 10:48:15;;;;;;;16.92;2.95;;;21.30;97.40;;;;;;5011464;28;20133;-70
2021/11/05 10:50:50;;;;;;;10.15;2.85;;;20.40;98.20;;;;;;5009924;28;20035;-69
2021/11/05 10:53:18;;;;;;;10.25;2.65;;;19.80;99.10;;;;;;5012858;28;20052;-72
2021/11/05 10:56:13;;;;;;;8.27;2.92;;;19.50;99.90;;;;;;5012278;28;20458;-71
2021/11/05 10:58:41;;;;;;;6.40;2.38;;;19.40;99.90;;;;;;5007989;28;20030;-73
2021/11/05 11:01:08;;;;;;;10.60;2.63;;;19.40;99.90;;;;;;5012454;28;20038;-72
2021/11/05 11:03:38;;;;;;;9.57;2.67;;;19.50;99.90;;;;;;5012442;28;20026;-70
2021/11/05 11:06:10;;;;;;;7.88;2.65;;;19.30;99.90;;;;;;5009815;28;20026;-70
2021/11/05 11:08:41;;;;;;;7.65;3.10;;;19.00;99.90;;;;;;5012483;28;20041;-71
2021/11/05 11:11:25;;;;;;;7.80;2.63;;;18.70;99.90;;;;;;5012099;28;20034;-72
2021/11/05 11:14:16;;;;;;;10.00;2.92;;;18.70;99.90;;;;;;5011270;28;20029;-72
2021/11/05 11:16:47;;;;;;;14.05;2.47;;;18.70;99.90;;;;;;5012277;28;20088;-71
2021/11/05 11:19:14;;;;;;;;;;;18.70;99.90;;;;;;5012569;28;20041;-72
2021/11/05 11:21:46;;;;;;;8.75;2.88;;;18.70;99.90;;;;;;5012009;28;19952;-71
2021/11/05 11:24:16;;;;;;;5.35;1.77;;;18.70;99.90;;;;;;5012414;28;20036;-71
2021/11/05 11:26:43;;;;;;;9.77;2.42;;;18.60;99.90;;;;;;5012157;28;20391;-72
2021/11/05 11:29:09;;;;;;;8.15;2.70;;;18.50;99.90;;;;;;5011976;28;20521;-73
2021/11/05 11:31:37;;;;;;;9.55;2.65;;;18.30;99.90;;;;;;5011198;28;20030;-71
2021/11/05 11:34:04;;;;;;;16.80;3.17;;;18.30;99.90;;;;;;5011215;28;20034;-70
2021/11/05 11:36:33;;;;;;;5.78;2.22;;;18.10;99.90;;;;;;5010938;28;20025;-71
2021/11/05 11:38:59;;;;;;;5.35;2.30;;;17.80;99.90;;;;;;5012476;28;20482;-73
2021/11/05 11:41:26;;;;;;;6.53;3.28;;;17.50;99.90;;;;;;5012868;28;20026;-72
2021/11/05 11:43:53;;;;;;;6.68;2.70;;;17.40;99.90;;;;;;5011284;28;20121;-69
2021/11/05 11:46:20;;;;;;;9.10;3.03;;;17.30;99.90;;;;;;5011487;28;20486;-71
2021/11/05 11:48:50;;;;;;;7.78;3.28;;;17.20;99.90;;;;;;5012197;28;20037;-71
2021/11/05 11:51:34;;;;;;;7.43;2.85;;;17.20;99.90;;;;;;5012301;28;20073;-71
2021/11/05 11:54:20;;;;;;;4.40;2.33;;;17.10;99.90;;;;;;5010588;28;20022;-71
2021/11/05 11:56:46;;;;;;;9.93;2.88;;;17.10;99.90;;;;;;5011225;28;20030;-70
2021/11/05 11:59:14;;;;;;;6.70;2.70;;;16.90;99.90;;;;;;5011186;28;20049;-72
2021/11/05 12:01:45;;;;;;;10.68;2.78;;;16.80;99.90;;;;;;5011381;28;20386;-70
2021/11/05 12:04:14;;;;;;;8.45;2.60;;;16.70;99.90;;;;;;5010528;28;20022;-70
2021/11/05 12:06:45;;;;;;;5.03;2.65;;;16.50;99.90;;;;;;5010944;28;20475;-72
2021/11/05 12:09:38;;;;;;;5.03;2.17;;;16.50;99.90;;;;;;5009958;28;20030;-71
2021/11/05 12:12:22;;;;;;;11.60;2.83;;;16.50;99.90;;;;;;5010019;28;20121;-72
2021/11/05 12:15:00;;;;;;;5.47;2.40;;;16.20;99.90;;;;;;5009413;28;20038;-71
2021/11/05 12:17:29;;;;;;;8.02;2.25;;;16.20;99.90;;;;;;4992526;28;20022;-72
2021/11/05 12:20:00;;;;;;;6.40;2.47;;;16.20;99.90;;;;;;5013258;28;20062;-71
2021/11/05 12:22:28;;;;;;;16.97;3.20;;;16.10;99.90;;;;;;5012411;28;20026;-71
2021/11/05 12:25:19;;;;;;;9.45;3.15;;;16.00;99.90;;;;;;5013601;28;20287;-71
2021/11/05 12:28:14;;;;;;;7.32;2.85;;;16.00;99.90;;;;;;5013448;28;20080;-71
2021/11/05 12:30:39;;;;;;;8.15;2.35;;;15.90;99.90;;;;;;5004622;28;20538;-72
2021/11/05 12:33:24;;;;;;;5.53;2.65;;;15.80;99.90;;;;;;5013678;28;20021;-68
2021/11/05 12:35:52;;;;;;;5.65;2.30;;;15.70;99.90;;;;;;4994205;28;20033;-68
2021/11/05 12:38:18;;;;;;;9.07;2.55;;;15.80;99.90;;;;;;5013564;28;20026;-71
2021/11/05 12:40:55;;;;;;;7.38;3.05;;;15.60;99.90;;;;;;5013778;28;20482;-70
2021/11/05 12:43:23;;;;;;;4.65;2.63;;;15.60;99.90;;;;;;4996111;28;20034;-72
2021/11/05 12:45:52;;;;;;;10.02;4.15;;;15.50;99.90;;;;;;5008911;28;20454;-70